sensor_id;sensor_type;location;lat;lon;timestamp;P1;durP1;ratioP1;P2;durP2;ratioP2
20906;SDS011;10613;50.966;5.814;2023-07-31T00:01:21;5.50;;;5.50;;
20906;SDS011;10613;50.966;5.814;2023-07-31T00:05:28;3.50;;;3.50;;
20906;SDS011;10613;50.966;5.814;2023-07-31T00:09:35;6.00;;;4.50;;
20906;SDS011;10613;50.966;5.814;2023-07-31T00:13:42;4.25;;;4.25;;
20906;SDS011;10613;50.966;5.814;2023-07-31T00:17:49;3.00;;;3.00;;
20906;SDS011;10613;50.966;5.814;2023-07-31T00:21:56;4.25;;;4.25;;
20906;SDS011;10613;50.966;5.814;2023-07-31T00:26:03;5.25;;;5.25;;
20906;SDS011;10613;50.966;5.814;2023-07-31T00:30:10;5.50;;;5.50;;
20906;SDS011;10613;50.966;5.814;2023-07-31T00:34:17;9.00;;;7.00;;
20906;SDS011;10613;50.966;5.814;2023-07-31T00:38:24;6.00;;;6.00;;
20906;SDS011;10613;50.966;5.814;2023-07-31T00:42:31;5.00;;;5.00;;
20906;SDS011;10613;50.966;5.814;2023-07-31T00:46:38;7.00;;;5.75;;
20906;SDS011;10613;50.966;5.814;2023-07-31T00:50:45;6.00;;;5.00;;
20906;SDS011;10613;50.966;5.814;2023-07-31T00:54:52;5.50;;;5.50;;
20906;SDS011;10613;50.966;5.814;2023-07-31T00:58:59;5.50;;;4.00;;
20906;SDS011;10613;50.966;5.814;2023-07-31T01:03:07;6.00;;;5.50;;
20906;SDS011;10613;50.966;5.814;2023-07-31T01:07:18;6.00;;;4.50;;
20906;SDS011;10613;50.966;5.814;2023-07-31T01:11:28;8.25;;;6.25;;
20906;SDS011;10613;50.966;5.814;2023-07-31T01:15:36;6.00;;;5.00;;
20906;SDS011;10613;50.966;5.814;2023-07-31T01:19:43;5.75;;;5.75;;
20906;SDS011;10613;50.966;5.814;2023-07-31T01:28:07;5.75;;;5.75;;
20906;SDS011;10613;50.966;5.814;2023-07-31T01:32:17;7.00;;;5.75;;
20906;SDS011;10613;50.966;5.814;2023-07-31T01:36:24;6.25;;;6.25;;
20906;SDS011;10613;50.966;5.814;2023-07-31T01:40:31;3.25;;;3.25;;
20906;SDS011;10613;50.966;5.814;2023-07-31T01:44:38;5.00;;;5.00;;
20906;SDS011;10613;50.966;5.814;2023-07-31T01:48:45;3.00;;;3.00;;
20906;SDS011;10613;50.966;5.814;2023-07-31T01:52:53;7.00;;;6.00;;
20906;SDS011;10613;50.966;5.814;2023-07-31T01:56:59;5.00;;;5.00;;
20906;SDS011;10613;50.966;5.814;2023-07-31T02:01:06;5.00;;;5.00;;
20906;SDS011;10613;50.966;5.814;2023-07-31T02:05:13;6.25;;;5.25;;
20906;SDS011;10613;50.966;5.814;2023-07-31T02:09:20;5.00;;;5.00;;
20906;SDS011;10613;50.966;5.814;2023-07-31T02:13:27;6.25;;;5.00;;
20906;SDS011;10613;50.966;5.814;2023-07-31T02:17:34;6.00;;;6.00;;
20906;SDS011;10613;50.966;5.814;2023-07-31T02:21:41;6.00;;;6.00;;
20906;SDS011;10613;50.966;5.814;2023-07-31T02:25:48;7.75;;;6.50;;
20906;SDS011;10613;50.966;5.814;2023-07-31T02:29:55;6.00;;;5.75;;
20906;SDS011;10613;50.966;5.814;2023-07-31T02:34:09;7.25;;;7.00;;
20906;SDS011;10613;50.966;5.814;2023-07-31T02:38:16;5.00;;;5.00;;
20906;SDS011;10613;50.966;5.814;2023-07-31T02:42:23;5.75;;;5.75;;
20906;SDS011;10613;50.966;5.814;2023-07-31T02:46:30;7.00;;;6.50;;
20906;SDS011;10613;50.966;5.814;2023-07-31T02:50:38;6.50;;;3.50;;
20906;SDS011;10613;50.966;5.814;2023-07-31T02:54:45;5.75;;;5.75;;
20906;SDS011;10613;50.966;5.814;2023-07-31T02:58:52;6.75;;;6.75;;
20906;SDS011;10613;50.966;5.814;2023-07-31T03:02:59;5.75;;;5.75;;
20906;SDS011;10613;50.966;5.814;2023-07-31T03:07:13;8.50;;;6.75;;
20906;SDS011;10613;50.966;5.814;2023-07-31T03:11:20;5.50;;;5.50;;
20906;SDS011;10613;50.966;5.814;2023-07-31T03:15:27;6.25;;;5.50;;
20906;SDS011;10613;50.966;5.814;2023-07-31T03:19:34;6.25;;;6.25;;
20906;SDS011;10613;50.966;5.814;2023-07-31T03:23:41;6.00;;;5.00;;
20906;SDS011;10613;50.966;5.814;2023-07-31T03:27:50;5.25;;;5.25;;
20906;SDS011;10613;50.966;5.814;2023-07-31T03:31:57;3.50;;;3.50;;
20906;SDS011;10613;50.966;5.814;2023-07-31T03:36:04;7.00;;;6.25;;
20906;SDS011;10613;50.966;5.814;2023-07-31T03:40:12;5.50;;;5.50;;
20906;SDS011;10613;50.966;5.814;2023-07-31T03:44:19;6.00;;;6.00;;
20906;SDS011;10613;50.966;5.814;2023-07-31T03:48:26;8.75;;;6.50;;
20906;SDS011;10613;50.966;5.814;2023-07-31T03:52:33;5.75;;;5.75;;
20906;SDS011;10613;50.966;5.814;2023-07-31T03:56:40;7.00;;;6.25;;
20906;SDS011;10613;50.966;5.814;2023-07-31T04:00:47;7.25;;;6.00;;
20906;SDS011;10613;50.966;5.814;2023-07-31T04:04:54;6.00;;;5.25;;
20906;SDS011;10613;50.966;5.814;2023-07-31T04:09:02;6.25;;;6.00;;
20906;SDS011;10613;50.966;5.814;2023-07-31T04:13:09;9.50;;;6.00;;
20906;SDS011;10613;50.966;5.814;2023-07-31T04:17:19;6.00;;;6.00;;
20906;SDS011;10613;50.966;5.814;2023-07-31T04:21:26;7.00;;;5.75;;
20906;SDS011;10613;50.966;5.814;2023-07-31T04:25:33;5.50;;;5.00;;
20906;SDS011;10613;50.966;5.814;2023-07-31T04:29:41;6.00;;;6.00;;
20906;SDS011;10613;50.966;5.814;2023-07-31T04:33:49;6.00;;;6.00;;
20906;SDS011;10613;50.966;5.814;2023-07-31T04:37:56;5.25;;;5.00;;
20906;SDS011;10613;50.966;5.814;2023-07-31T04:42:03;7.00;;;7.00;;
20906;SDS011;10613;50.966;5.814;2023-07-31T04:46:10;7.00;;;5.75;;
20906;SDS011;10613;50.966;5.814;2023-07-31T04:50:17;5.00;;;5.00;;
20906;SDS011;10613;50.966;5.814;2023-07-31T04:54:24;5.75;;;5.00;;
20906;SDS011;10613;50.966;5.814;2023-07-31T04:58:31;6.00;;;6.00;;
20906;SDS011;10613;50.966;5.814;2023-07-31T05:02:38;4.50;;;4.00;;
20906;SDS011;10613;50.966;5.814;2023-07-31T05:06:45;5.25;;;5.00;;
20906;SDS011;10613;50.966;5.814;2023-07-31T05:10:52;10.00;;;8.25;;
20906;SDS011;10613;50.966;5.814;2023-07-31T05:14:59;5.25;;;4.25;;
20906;SDS011;10613;50.966;5.814;2023-07-31T05:19:06;6.00;;;6.00;;
20906;SDS011;10613;50.966;5.814;2023-07-31T05:23:13;5.25;;;5.25;;
20906;SDS011;10613;50.966;5.814;2023-07-31T05:27:20;3.00;;;3.00;;
20906;SDS011;10613;50.966;5.814;2023-07-31T05:31:27;6.00;;;5.00;;
20906;SDS011;10613;50.966;5.814;2023-07-31T05:35:34;5.00;;;5.00;;
20906;SDS011;10613;50.966;5.814;2023-07-31T05:39:41;5.00;;;4.50;;
20906;SDS011;10613;50.966;5.814;2023-07-31T05:43:48;4.50;;;4.50;;
20906;SDS011;10613;50.966;5.814;2023-07-31T05:47:55;5.50;;;5.00;;
20906;SDS011;10613;50.966;5.814;2023-07-31T05:52:02;6.25;;;5.50;;
20906;SDS011;10613;50.966;5.814;2023-07-31T05:56:09;7.00;;;6.00;;
20906;SDS011;10613;50.966;5.814;2023-07-31T06:00:16;6.50;;;6.00;;
20906;SDS011;10613;50.966;5.814;2023-07-31T06:04:23;7.00;;;7.00;;
20906;SDS011;10613;50.966;5.814;2023-07-31T06:08:31;4.50;;;4.50;;
20906;SDS011;10613;50.966;5.814;2023-07-31T06:12:38;5.75;;;5.00;;
20906;SDS011;10613;50.966;5.814;2023-07-31T06:16:45;6.25;;;6.25;;
20906;SDS011;10613;50.966;5.814;2023-07-31T06:20:52;8.25;;;8.25;;
20906;SDS011;10613;50.966;5.814;2023-07-31T06:24:59;6.00;;;3.00;;
20906;SDS011;10613;50.966;5.814;2023-07-31T06:29:06;4.50;;;4.50;;
20906;SDS011;10613;50.966;5.814;2023-07-31T06:33:13;6.50;;;6.00;;
20906;SDS011;10613;50.966;5.814;2023-07-31T06:37:20;6.00;;;5.25;;
20906;SDS011;10613;50.966;5.814;2023-07-31T06:41:27;5.00;;;5.00;;
20906;SDS011;10613;50.966;5.814;2023-07-31T06:45:40;7.00;;;6.00;;
20906;SDS011;10613;50.966;5.814;2023-07-31T06:49:46;3.50;;;3.50;;
20906;SDS011;10613;50.966;5.814;2023-07-31T06:53:53;5.00;;;5.00;;
20906;SDS011;10613;50.966;5.814;2023-07-31T06:58:00;5.50;;;5.50;;
20906;SDS011;10613;50.966;5.814;2023-07-31T07:02:07;6.25;;;6.00;;
20906;SDS011;10613;50.966;5.814;2023-07-31T07:06:14;5.50;;;5.50;;
20906;SDS011;10613;50.966;5.814;2023-07-31T07:10:21;6.25;;;6.25;;
20906;SDS011;10613;50.966;5.814;2023-07-31T07:14:28;6.50;;;5.50;;
20906;SDS011;10613;50.966;5.814;2023-07-31T07:18:35;7.00;;;6.00;;
20906;SDS011;10613;50.966;5.814;2023-07-31T07:22:42;6.00;;;5.25;;
20906;SDS011;10613;50.966;5.814;2023-07-31T07:26:56;5.25;;;5.25;;
20906;SDS011;10613;50.966;5.814;2023-07-31T07:31:03;5.00;;;5.00;;
20906;SDS011;10613;50.966;5.814;2023-07-31T07:35:11;3.50;;;3.50;;
20906;SDS011;10613;50.966;5.814;2023-07-31T07:39:18;6.75;;;5.75;;
20906;SDS011;10613;50.966;5.814;2023-07-31T07:43:25;6.25;;;6.25;;
20906;SDS011;10613;50.966;5.814;2023-07-31T07:47:32;6.25;;;5.25;;
20906;SDS011;10613;50.966;5.814;2023-07-31T07:51:39;5.00;;;5.00;;
20906;SDS011;10613;50.966;5.814;2023-07-31T07:55:46;7.50;;;4.50;;
20906;SDS011;10613;50.966;5.814;2023-07-31T07:59:53;5.50;;;5.00;;
20906;SDS011;10613;50.966;5.814;2023-07-31T08:04:00;8.50;;;8.50;;
20906;SDS011;10613;50.966;5.814;2023-07-31T08:08:07;7.00;;;5.25;;
20906;SDS011;10613;50.966;5.814;2023-07-31T08:12:14;5.25;;;5.00;;
20906;SDS011;10613;50.966;5.814;2023-07-31T08:16:21;5.25;;;5.25;;
20906;SDS011;10613;50.966;5.814;2023-07-31T08:20:28;5.75;;;5.75;;
20906;SDS011;10613;50.966;5.814;2023-07-31T08:24:35;6.75;;;6.75;;
20906;SDS011;10613;50.966;5.814;2023-07-31T08:28:42;5.75;;;5.75;;
20906;SDS011;10613;50.966;5.814;2023-07-31T08:32:56;6.00;;;6.00;;
20906;SDS011;10613;50.966;5.814;2023-07-31T08:37:04;7.00;;;5.50;;
20906;SDS011;10613;50.966;5.814;2023-07-31T08:41:10;6.75;;;6.00;;
20906;SDS011;10613;50.966;5.814;2023-07-31T08:45:18;5.25;;;5.25;;
20906;SDS011;10613;50.966;5.814;2023-07-31T08:49:29;5.25;;;5.25;;
20906;SDS011;10613;50.966;5.814;2023-07-31T08:53:36;6.75;;;6.75;;
20906;SDS011;10613;50.966;5.814;2023-07-31T08:57:43;7.00;;;7.00;;
20906;SDS011;10613;50.966;5.814;2023-07-31T09:01:52;9.00;;;7.00;;
20906;SDS011;10613;50.966;5.814;2023-07-31T09:06:00;5.00;;;4.50;;
20906;SDS011;10613;50.966;5.814;2023-07-31T09:10:09;5.00;;;5.00;;
20906;SDS011;10613;50.966;5.814;2023-07-31T09:14:16;6.00;;;6.00;;
20906;SDS011;10613;50.966;5.814;2023-07-31T09:18:23;8.25;;;4.50;;
20906;SDS011;10613;50.966;5.814;2023-07-31T09:22:31;5.00;;;5.00;;
20906;SDS011;10613;50.966;5.814;2023-07-31T09:26:38;6.00;;;6.00;;
20906;SDS011;10613;50.966;5.814;2023-07-31T09:30:50;5.00;;;5.00;;
20906;SDS011;10613;50.966;5.814;2023-07-31T09:34:56;3.00;;;3.00;;
20906;SDS011;10613;50.966;5.814;2023-07-31T09:39:04;5.25;;;5.25;;
20906;SDS011;10613;50.966;5.814;2023-07-31T09:43:12;6.25;;;6.25;;
20906;SDS011;10613;50.966;5.814;2023-07-31T09:47:22;5.00;;;5.00;;
20906;SDS011;10613;50.966;5.814;2023-07-31T09:51:32;8.00;;;5.50;;
20906;SDS011;10613;50.966;5.814;2023-07-31T09:55:39;5.50;;;5.50;;
20906;SDS011;10613;50.966;5.814;2023-07-31T09:59:47;3.00;;;3.00;;
20906;SDS011;10613;50.966;5.814;2023-07-31T10:03:55;4.00;;;4.00;;
20906;SDS011;10613;50.966;5.814;2023-07-31T10:08:02;5.25;;;5.25;;
20906;SDS011;10613;50.966;5.814;2023-07-31T10:12:10;4.00;;;4.00;;
20906;SDS011;10613;50.966;5.814;2023-07-31T10:16:18;5.25;;;3.00;;
20906;SDS011;10613;50.966;5.814;2023-07-31T10:20:25;3.00;;;3.00;;
20906;SDS011;10613;50.966;5.814;2023-07-31T10:24:33;5.25;;;3.00;;
20906;SDS011;10613;50.966;5.814;2023-07-31T10:28:41;3.00;;;3.00;;
20906;SDS011;10613;50.966;5.814;2023-07-31T10:32:48;3.50;;;3.50;;
20906;SDS011;10613;50.966;5.814;2023-07-31T10:41:28;5.25;;;5.25;;
20906;SDS011;10613;50.966;5.814;2023-07-31T10:45:37;5.00;;;5.00;;
20906;SDS011;10613;50.966;5.814;2023-07-31T10:49:45;5.75;;;4.00;;
20906;SDS011;10613;50.966;5.814;2023-07-31T10:53:53;5.00;;;5.00;;
20906;SDS011;10613;50.966;5.814;2023-07-31T10:58:18;5.00;;;4.00;;
20906;SDS011;10613;50.966;5.814;2023-07-31T11:02:26;3.00;;;3.00;;
20906;SDS011;10613;50.966;5.814;2023-07-31T11:06:34;3.00;;;3.00;;
20906;SDS011;10613;50.966;5.814;2023-07-31T11:10:43;3.00;;;3.00;;
20906;SDS011;10613;50.966;5.814;2023-07-31T11:14:57;5.00;;;3.50;;
20906;SDS011;10613;50.966;5.814;2023-07-31T11:19:04;4.00;;;4.00;;
20906;SDS011;10613;50.966;5.814;2023-07-31T11:23:16;4.00;;;4.00;;
20906;SDS011;10613;50.966;5.814;2023-07-31T11:27:23;5.00;;;5.00;;
20906;SDS011;10613;50.966;5.814;2023-07-31T11:31:30;6.75;;;6.75;;
20906;SDS011;10613;50.966;5.814;2023-07-31T11:35:47;5.75;;;5.50;;
20906;SDS011;10613;50.966;5.814;2023-07-31T11:39:58;5.00;;;3.00;;
20906;SDS011;10613;50.966;5.814;2023-07-31T11:44:06;7.75;;;7.00;;
20906;SDS011;10613;50.966;5.814;2023-07-31T11:48:22;5.00;;;3.00;;
20906;SDS011;10613;50.966;5.814;2023-07-31T11:52:30;5.00;;;5.00;;
20906;SDS011;10613;50.966;5.814;2023-07-31T11:56:39;6.00;;;6.00;;
20906;SDS011;10613;50.966;5.814;2023-07-31T12:00:46;7.50;;;6.25;;
20906;SDS011;10613;50.966;5.814;2023-07-31T12:04:53;5.50;;;5.50;;
20906;SDS011;10613;50.966;5.814;2023-07-31T12:09:00;4.50;;;4.50;;
20906;SDS011;10613;50.966;5.814;2023-07-31T12:13:09;5.25;;;5.25;;
20906;SDS011;10613;50.966;5.814;2023-07-31T12:17:22;7.00;;;7.00;;
20906;SDS011;10613;50.966;5.814;2023-07-31T12:21:29;5.00;;;5.00;;
20906;SDS011;10613;50.966;5.814;2023-07-31T12:25:36;6.75;;;6.25;;
20906;SDS011;10613;50.966;5.814;2023-07-31T12:29:43;5.75;;;5.00;;
20906;SDS011;10613;50.966;5.814;2023-07-31T12:33:51;8.00;;;8.00;;
20906;SDS011;10613;50.966;5.814;2023-07-31T12:38:00;5.25;;;5.25;;
20906;SDS011;10613;50.966;5.814;2023-07-31T12:42:07;5.00;;;5.00;;
20906;SDS011;10613;50.966;5.814;2023-07-31T12:46:14;7.50;;;6.00;;
20906;SDS011;10613;50.966;5.814;2023-07-31T12:50:21;9.75;;;6.75;;
20906;SDS011;10613;50.966;5.814;2023-07-31T12:54:28;5.00;;;5.00;;
20906;SDS011;10613;50.966;5.814;2023-07-31T12:58:35;3.75;;;3.50;;
20906;SDS011;10613;50.966;5.814;2023-07-31T13:02:42;6.00;;;6.00;;
20906;SDS011;10613;50.966;5.814;2023-07-31T13:06:49;6.75;;;5.75;;
20906;SDS011;10613;50.966;5.814;2023-07-31T13:10:56;6.00;;;6.00;;
20906;SDS011;10613;50.966;5.814;2023-07-31T13:15:06;8.00;;;7.00;;
20906;SDS011;10613;50.966;5.814;2023-07-31T13:19:13;5.25;;;5.00;;
20906;SDS011;10613;50.966;5.814;2023-07-31T13:23:27;6.75;;;6.00;;
20906;SDS011;10613;50.966;5.814;2023-07-31T13:27:34;6.75;;;6.75;;
20906;SDS011;10613;50.966;5.814;2023-07-31T13:31:42;7.00;;;6.00;;
20906;SDS011;10613;50.966;5.814;2023-07-31T13:35:49;7.00;;;5.75;;
20906;SDS011;10613;50.966;5.814;2023-07-31T13:39:56;5.75;;;5.75;;
20906;SDS011;10613;50.966;5.814;2023-07-31T13:44:03;5.00;;;5.00;;
20906;SDS011;10613;50.966;5.814;2023-07-31T13:48:10;6.50;;;6.00;;
20906;SDS011;10613;50.966;5.814;2023-07-31T13:52:17;7.25;;;6.00;;
20906;SDS011;10613;50.966;5.814;2023-07-31T13:56:24;7.25;;;6.50;;
20906;SDS011;10613;50.966;5.814;2023-07-31T14:00:31;7.50;;;7.50;;
20906;SDS011;10613;50.966;5.814;2023-07-31T14:04:38;7.00;;;6.50;;
20906;SDS011;10613;50.966;5.814;2023-07-31T14:08:45;6.50;;;6.50;;
20906;SDS011;10613;50.966;5.814;2023-07-31T14:12:59;8.25;;;8.00;;
20906;SDS011;10613;50.966;5.814;2023-07-31T14:17:06;7.75;;;7.75;;
20906;SDS011;10613;50.966;5.814;2023-07-31T14:21:13;5.25;;;5.25;;
20906;SDS011;10613;50.966;5.814;2023-07-31T14:25:20;6.00;;;6.00;;
20906;SDS011;10613;50.966;5.814;2023-07-31T14:29:27;7.00;;;7.00;;
20906;SDS011;10613;50.966;5.814;2023-07-31T14:33:34;7.25;;;7.25;;
20906;SDS011;10613;50.966;5.814;2023-07-31T14:37:42;5.25;;;5.25;;
20906;SDS011;10613;50.966;5.814;2023-07-31T14:41:49;7.50;;;6.25;;
20906;SDS011;10613;50.966;5.814;2023-07-31T14:45:56;6.25;;;6.25;;
20906;SDS011;10613;50.966;5.814;2023-07-31T14:50:06;10.00;;;7.75;;
20906;SDS011;10613;50.966;5.814;2023-07-31T14:54:13;6.75;;;6.00;;
20906;SDS011;10613;50.966;5.814;2023-07-31T14:58:20;7.00;;;7.00;;
20906;SDS011;10613;50.966;5.814;2023-07-31T15:02:27;6.25;;;6.25;;
20906;SDS011;10613;50.966;5.814;2023-07-31T15:06:34;5.00;;;5.00;;
20906;SDS011;10613;50.966;5.814;2023-07-31T15:10:42;5.50;;;5.50;;
20906;SDS011;10613;50.966;5.814;2023-07-31T15:14:49;6.75;;;6.25;;
20906;SDS011;10613;50.966;5.814;2023-07-31T15:18:56;5.25;;;5.25;;
20906;SDS011;10613;50.966;5.814;2023-07-31T15:23:03;6.25;;;6.25;;
20906;SDS011;10613;50.966;5.814;2023-07-31T15:27:10;6.00;;;6.00;;
20906;SDS011;10613;50.966;5.814;2023-07-31T15:31:17;5.75;;;5.75;;
20906;SDS011;10613;50.966;5.814;2023-07-31T15:35:24;7.00;;;7.00;;
20906;SDS011;10613;50.966;5.814;2023-07-31T15:39:31;5.25;;;5.25;;
20906;SDS011;10613;50.966;5.814;2023-07-31T15:43:38;5.25;;;5.00;;
20906;SDS011;10613;50.966;5.814;2023-07-31T15:47:45;5.00;;;5.00;;
20906;SDS011;10613;50.966;5.814;2023-07-31T15:51:52;5.50;;;5.25;;
20906;SDS011;10613;50.966;5.814;2023-07-31T15:55:59;3.00;;;3.00;;
20906;SDS011;10613;50.966;5.814;2023-07-31T16:00:06;3.00;;;3.00;;
20906;SDS011;10613;50.966;5.814;2023-07-31T16:04:15;6.75;;;5.75;;
20906;SDS011;10613;50.966;5.814;2023-07-31T16:08:22;4.50;;;3.00;;
20906;SDS011;10613;50.966;5.814;2023-07-31T16:12:29;3.50;;;3.50;;
20906;SDS011;10613;50.966;5.814;2023-07-31T16:16:36;5.25;;;5.25;;
20906;SDS011;10613;50.966;5.814;2023-07-31T16:20:43;6.25;;;6.25;;
20906;SDS011;10613;50.966;5.814;2023-07-31T16:24:50;6.00;;;4.50;;
20906;SDS011;10613;50.966;5.814;2023-07-31T16:28:57;4.00;;;4.00;;
20906;SDS011;10613;50.966;5.814;2023-07-31T16:33:04;5.25;;;5.00;;
20906;SDS011;10613;50.966;5.814;2023-07-31T16:37:11;12.00;;;12.00;;
20906;SDS011;10613;50.966;5.814;2023-07-31T16:41:18;4.75;;;4.25;;
20906;SDS011;10613;50.966;5.814;2023-07-31T16:45:25;3.50;;;3.50;;
20906;SDS011;10613;50.966;5.814;2023-07-31T16:49:32;5.75;;;5.75;;
20906;SDS011;10613;50.966;5.814;2023-07-31T16:53:39;5.25;;;5.00;;
20906;SDS011;10613;50.966;5.814;2023-07-31T16:57:46;5.00;;;5.00;;
20906;SDS011;10613;50.966;5.814;2023-07-31T17:01:53;4.50;;;4.50;;
20906;SDS011;10613;50.966;5.814;2023-07-31T17:06:00;3.00;;;3.00;;
20906;SDS011;10613;50.966;5.814;2023-07-31T17:10:07;6.00;;;6.00;;
20906;SDS011;10613;50.966;5.814;2023-07-31T17:14:14;6.00;;;6.00;;
20906;SDS011;10613;50.966;5.814;2023-07-31T17:18:21;3.00;;;3.00;;
20906;SDS011;10613;50.966;5.814;2023-07-31T17:22:28;3.00;;;3.00;;
20906;SDS011;10613;50.966;5.814;2023-07-31T17:26:35;5.00;;;4.50;;
20906;SDS011;10613;50.966;5.814;2023-07-31T17:30:42;3.50;;;3.50;;
20906;SDS011;10613;50.966;5.814;2023-07-31T17:34:49;3.50;;;3.00;;
20906;SDS011;10613;50.966;5.814;2023-07-31T17:38:56;9.00;;;5.00;;
20906;SDS011;10613;50.966;5.814;2023-07-31T17:43:03;3.00;;;3.00;;
20906;SDS011;10613;50.966;5.814;2023-07-31T17:47:10;3.00;;;3.00;;
20906;SDS011;10613;50.966;5.814;2023-07-31T17:51:17;4.00;;;3.50;;
20906;SDS011;10613;50.966;5.814;2023-07-31T17:55:24;5.00;;;5.00;;
20906;SDS011;10613;50.966;5.814;2023-07-31T17:59:31;5.25;;;5.25;;
20906;SDS011;10613;50.966;5.814;2023-07-31T18:03:38;3.50;;;3.50;;
20906;SDS011;10613;50.966;5.814;2023-07-31T18:07:45;3.00;;;3.00;;
20906;SDS011;10613;50.966;5.814;2023-07-31T18:11:52;3.00;;;3.00;;
20906;SDS011;10613;50.966;5.814;2023-07-31T18:15:59;3.00;;;3.00;;
20906;SDS011;10613;50.966;5.814;2023-07-31T18:20:06;2.50;;;2.50;;
20906;SDS011;10613;50.966;5.814;2023-07-31T18:24:15;3.00;;;3.00;;
20906;SDS011;10613;50.966;5.814;2023-07-31T18:28:22;4.50;;;4.50;;
20906;SDS011;10613;50.966;5.814;2023-07-31T18:32:29;3.50;;;3.00;;
20906;SDS011;10613;50.966;5.814;2023-07-31T18:36:36;2.00;;;2.00;;
20906;SDS011;10613;50.966;5.814;2023-07-31T18:40:43;4.00;;;2.75;;
20906;SDS011;10613;50.966;5.814;2023-07-31T18:44:50;3.00;;;3.00;;
20906;SDS011;10613;50.966;5.814;2023-07-31T18:48:57;3.50;;;3.50;;
20906;SDS011;10613;50.966;5.814;2023-07-31T18:53:04;3.00;;;3.00;;
20906;SDS011;10613;50.966;5.814;2023-07-31T18:57:11;2.25;;;2.00;;
20906;SDS011;10613;50.966;5.814;2023-07-31T19:01:18;2.25;;;2.25;;
20906;SDS011;10613;50.966;5.814;2023-07-31T19:05:25;2.00;;;2.00;;
20906;SDS011;10613;50.966;5.814;2023-07-31T19:09:33;1.75;;;1.75;;
20906;SDS011;10613;50.966;5.814;2023-07-31T19:13:41;2.00;;;2.00;;
20906;SDS011;10613;50.966;5.814;2023-07-31T19:17:48;3.00;;;3.00;;
20906;SDS011;10613;50.966;5.814;2023-07-31T19:21:56;2.00;;;2.00;;
20906;SDS011;10613;50.966;5.814;2023-07-31T19:26:09;6.00;;;6.00;;
20906;SDS011;10613;50.966;5.814;2023-07-31T19:30:16;1.00;;;1.00;;
20906;SDS011;10613;50.966;5.814;2023-07-31T19:34:23;2.00;;;2.00;;
20906;SDS011;10613;50.966;5.814;2023-07-31T19:38:31;2.00;;;2.00;;
20906;SDS011;10613;50.966;5.814;2023-07-31T19:42:38;2.75;;;2.75;;
20906;SDS011;10613;50.966;5.814;2023-07-31T19:46:45;3.50;;;3.50;;
20906;SDS011;10613;50.966;5.814;2023-07-31T19:50:52;2.25;;;2.25;;
20906;SDS011;10613;50.966;5.814;2023-07-31T19:54:59;1.75;;;1.75;;
20906;SDS011;10613;50.966;5.814;2023-07-31T19:59:06;2.00;;;2.00;;
20906;SDS011;10613;50.966;5.814;2023-07-31T20:03:13;2.00;;;2.00;;
20906;SDS011;10613;50.966;5.814;2023-07-31T20:07:27;3.50;;;3.50;;
20906;SDS011;10613;50.966;5.814;2023-07-31T20:11:34;2.00;;;2.00;;
20906;SDS011;10613;50.966;5.814;2023-07-31T20:15:41;2.00;;;1.50;;
20906;SDS011;10613;50.966;5.814;2023-07-31T20:19:48;3.00;;;2.00;;
20906;SDS011;10613;50.966;5.814;2023-07-31T20:23:55;1.75;;;1.00;;
20906;SDS011;10613;50.966;5.814;2023-07-31T20:28:02;2.00;;;2.00;;
20906;SDS011;10613;50.966;5.814;2023-07-31T20:32:09;2.00;;;2.00;;
20906;SDS011;10613;50.966;5.814;2023-07-31T20:36:16;2.25;;;2.25;;
20906;SDS011;10613;50.966;5.814;2023-07-31T20:40:23;2.00;;;2.00;;
20906;SDS011;10613;50.966;5.814;2023-07-31T20:44:30;1.00;;;1.00;;
20906;SDS011;10613;50.966;5.814;2023-07-31T20:48:37;1.00;;;1.00;;
20906;SDS011;10613;50.966;5.814;2023-07-31T20:52:44;2.00;;;2.00;;
20906;SDS011;10613;50.966;5.814;2023-07-31T20:56:51;2.00;;;2.00;;
20906;SDS011;10613;50.966;5.814;2023-07-31T21:01:03;2.00;;;2.00;;
20906;SDS011;10613;50.966;5.814;2023-07-31T21:05:10;2.00;;;2.00;;
20906;SDS011;10613;50.966;5.814;2023-07-31T21:09:25;1.00;;;1.00;;
20906;SDS011;10613;50.966;5.814;2023-07-31T21:13:46;1.00;;;1.00;;
20906;SDS011;10613;50.966;5.814;2023-07-31T21:17:55;1.25;;;1.25;;
20906;SDS011;10613;50.966;5.814;2023-07-31T21:22:03;2.00;;;2.00;;
20906;SDS011;10613;50.966;5.814;2023-07-31T21:26:10;2.75;;;2.75;;
20906;SDS011;10613;50.966;5.814;2023-07-31T21:30:17;2.00;;;2.00;;
20906;SDS011;10613;50.966;5.814;2023-07-31T21:34:25;3.50;;;3.50;;
20906;SDS011;10613;50.966;5.814;2023-07-31T21:38:32;1.25;;;1.25;;
20906;SDS011;10613;50.966;5.814;2023-07-31T21:42:39;2.50;;;2.50;;
20906;SDS011;10613;50.966;5.814;2023-07-31T21:46:46;2.00;;;2.00;;
20906;SDS011;10613;50.966;5.814;2023-07-31T21:50:53;2.25;;;2.25;;
20906;SDS011;10613;50.966;5.814;2023-07-31T21:55:02;2.00;;;2.00;;
20906;SDS011;10613;50.966;5.814;2023-07-31T21:59:09;1.50;;;1.50;;
20906;SDS011;10613;50.966;5.814;2023-07-31T22:03:16;5.50;;;5.50;;
20906;SDS011;10613;50.966;5.814;2023-07-31T22:07:23;1.75;;;1.75;;
20906;SDS011;10613;50.966;5.814;2023-07-31T22:11:30;1.50;;;1.50;;
20906;SDS011;10613;50.966;5.814;2023-07-31T22:15:37;2.00;;;2.00;;
20906;SDS011;10613;50.966;5.814;2023-07-31T22:19:44;1.25;;;1.25;;
20906;SDS011;10613;50.966;5.814;2023-07-31T22:23:51;1.25;;;1.25;;
20906;SDS011;10613;50.966;5.814;2023-07-31T22:27:58;1.50;;;1.50;;
20906;SDS011;10613;50.966;5.814;2023-07-31T22:32:06;2.00;;;2.00;;
20906;SDS011;10613;50.966;5.814;2023-07-31T22:36:14;2.00;;;2.00;;
20906;SDS011;10613;50.966;5.814;2023-07-31T22:40:21;5.25;;;5.25;;
20906;SDS011;10613;50.966;5.814;2023-07-31T22:44:28;1.00;;;1.00;;
20906;SDS011;10613;50.966;5.814;2023-07-31T22:48:35;2.00;;;2.00;;
20906;SDS011;10613;50.966;5.814;2023-07-31T22:52:42;1.00;;;1.00;;
20906;SDS011;10613;50.966;5.814;2023-07-31T22:56:49;2.00;;;2.00;;
20906;SDS011;10613;50.966;5.814;2023-07-31T23:01:00;1.50;;;1.50;;
20906;SDS011;10613;50.966;5.814;2023-07-31T23:05:06;1.00;;;1.00;;
20906;SDS011;10613;50.966;5.814;2023-07-31T23:09:13;1.00;;;1.00;;
20906;SDS011;10613;50.966;5.814;2023-07-31T23:13:20;1.00;;;1.00;;
20906;SDS011;10613;50.966;5.814;2023-07-31T23:17:27;1.00;;;1.00;;
20906;SDS011;10613;50.966;5.814;2023-07-31T23:21:34;2.00;;;2.00;;
20906;SDS011;10613;50.966;5.814;2023-07-31T23:25:41;1.00;;;1.00;;
20906;SDS011;10613;50.966;5.814;2023-07-31T23:29:48;1.00;;;1.00;;
20906;SDS011;10613;50.966;5.814;2023-07-31T23:33:55;2.25;;;2.00;;
20906;SDS011;10613;50.966;5.814;2023-07-31T23:38:03;2.00;;;1.00;;
20906;SDS011;10613;50.966;5.814;2023-07-31T23:42:09;1.00;;;1.00;;
20906;SDS011;10613;50.966;5.814;2023-07-31T23:46:16;1.25;;;1.25;;
20906;SDS011;10613;50.966;5.814;2023-07-31T23:50:23;1.00;;;1.00;;
20906;SDS011;10613;50.966;5.814;2023-07-31T23:54:31;1.00;;;1.00;;
20906;SDS011;10613;50.966;5.814;2023-07-31T23:58:37;2.00;;;2.00;;
